Time;durP1;ratioP1;P1;durP2;ratioP2;P2;SDS_P1;SDS_P2;PMS_P1;PMS_P2;Temp;Humidity;BMP_temperature;BMP_pressure;BME280_temperature;BME280_humidity;BME280_pressure;Samples;Min_cycle;Max_cycle;Signal;HPM_P1;HPM_P2
2023/11/07 00:00:03;;;;;;;8.20;1.50;;;;;;;8.23;86.03;99697.59;110743;1267;22380;-81
2023/11/07 00:02:33;;;;;;;14.50;1.20;;;;;;;8.25;86.19;99699.80;110749;1266;22251;-81
2023/11/07 00:05:04;;;;;;;7.10;1.60;;;;;;;8.27;86.17;99703.58;110764;1272;22352;-81
2023/11/07 00:07:32;;;;;;;7.40;1.30;;;;;;;8.28;85.92;99709.16;110755;1272;22153;-82
2023/11/07 00:10:00;;;;;;;4.80;1.10;;;;;;;8.30;86.00;99713.54;110784;1266;22331;-82
2023/11/07 00:12:28;;;;;;;11.60;1.10;;;;;;;8.30;85.99;99716.38;110727;1266;22294;-82
2023/11/07 00:14:57;;;;;;;5.90;1.20;;;;;;;8.31;85.98;99720.33;110622;1269;197146;-82
2023/11/07 00:17:25;;;;;;;6.30;1.10;;;;;;;8.30;85.81;99719.06;110737;1269;22189;-81
2023/11/07 00:19:56;;;;;;;7.00;1.20;;;;;;;8.31;85.86;99727.77;110779;1272;22428;-83
2023/11/07 00:22:24;;;;;;;10.40;1.20;;;;;;;8.31;85.87;99731.15;110725;1268;22302;-82
2023/11/07 00:24:54;;;;;;;5.40;1.00;;;;;;;8.31;85.79;99732.26;110760;1272;22225;-82
2023/11/07 00:27:24;;;;;;;4.50;1.00;;;;;;;8.32;85.82;99733.65;110706;1267;22209;-81
2023/11/07 00:29:54;;;;;;;12.90;1.30;;;;;;;8.32;85.90;99732.45;110785;1272;22322;-82
2023/11/07 00:32:22;;;;;;;6.40;1.30;;;;;;;8.32;85.83;99738.70;110798;1256;22422;-81
2023/11/07 00:34:50;;;;;;;5.90;1.10;;;;;;;8.32;85.95;99736.19;110722;1269;22228;-81
2023/11/07 00:37:19;;;;;;;6.80;0.90;;;;;;;8.31;85.97;99738.03;110756;1272;22220;-81
2023/11/07 00:39:47;;;;;;;11.60;1.60;;;;;;;8.32;85.83;99743.16;110755;1266;22390;-81
2023/11/07 00:42:16;;;;;;;8.10;1.20;;;;;;;8.33;85.85;99745.70;110715;1264;22811;-82
2023/11/07 00:44:44;;;;;;;5.20;0.90;;;;;;;8.35;85.80;99744.13;110782;1269;22234;-82
2023/11/07 00:47:12;;;;;;;7.20;1.00;;;;;;;8.35;85.83;99741.46;110806;1268;22507;-81
2023/11/07 00:49:40;;;;;;;6.90;1.10;;;;;;;8.37;85.73;99747.01;110727;1265;22214;-81
2023/11/07 00:52:09;;;;;;;8.90;1.70;;;;;;;8.39;85.64;99748.20;110724;1265;22325;-82
2023/11/07 00:54:37;;;;;;;7.50;1.10;;;;;;;8.41;85.90;99749.45;110751;1268;23206;-81
2023/11/07 00:57:06;;;;;;;6.70;1.20;;;;;;;8.42;85.74;99748.02;110784;1272;23089;-81
2023/11/07 00:59:35;;;;;;;8.30;1.10;;;;;;;8.44;85.84;99744.05;110766;1265;22333;-82
2023/11/07 01:02:06;;;;;;;8.90;1.20;;;;;;;8.46;86.00;99740.59;110702;1272;23059;-82
2023/11/07 01:04:34;;;;;;;12.40;1.10;;;;;;;8.49;85.93;99738.13;110746;1266;22352;-82
2023/11/07 01:07:03;;;;;;;6.00;1.10;;;;;;;8.53;85.99;99739.92;110747;1267;22335;-82
2023/11/07 01:09:33;;;;;;;11.10;1.00;;;;;;;8.57;85.98;99737.94;110769;1272;22365;-82
2023/11/07 01:12:03;;;;;;;;;;;;;;;8.62;85.94;99748.55;110724;1272;22586;-81
2023/11/07 01:14:32;;;;;;;4.70;0.80;;;;;;;8.66;86.38;99750.71;110649;1272;22145;-83
2023/11/07 01:17:05;;;;;;;5.90;0.80;;;;;;;8.70;86.10;99754.59;110607;1272;23108;-81
2023/11/07 01:19:34;;;;;;;6.30;0.70;;;;;;;8.74;86.17;99746.24;110709;1272;22172;-81
2023/11/07 01:22:02;;;;;;;5.10;0.80;;;;;;;8.78;86.04;99750.61;110745;1272;22378;-81
2023/11/07 01:24:30;;;;;;;5.60;0.80;;;;;;;8.83;86.14;99757.29;110686;1272;22395;-83
2023/11/07 01:27:00;;;;;;;3.30;0.60;;;;;;;8.87;86.23;99764.15;110666;1272;22962;-81
2023/11/07 01:29:29;;;;;;;7.80;0.70;;;;;;;8.90;86.05;99773.55;110533;1266;22379;-82
2023/11/07 01:31:57;;;;;;;4.90;0.80;;;;;;;8.94;86.28;99771.73;110599;1272;22217;-81
2023/11/07 01:34:25;;;;;;;6.40;1.00;;;;;;;8.97;86.45;99776.79;110735;1272;22254;-82
2023/11/07 01:36:59;;;;;;;4.20;0.60;;;;;;;9.01;87.08;99772.58;110639;1272;22178;-82
2023/11/07 01:39:27;;;;;;;8.70;0.90;;;;;;;9.02;87.41;99778.33;110712;1272;22258;-82
2023/11/07 01:41:56;;;;;;;6.10;0.70;;;;;;;9.01;87.75;99780.34;110611;1272;22909;-83
2023/11/07 01:44:28;;;;;;;5.50;0.90;;;;;;;9.00;87.96;99780.11;110767;1269;22198;-83
2023/11/07 01:46:59;;;;;;;6.30;0.70;;;;;;;8.99;88.28;99780.24;110835;1272;22181;-86
2023/11/07 01:49:29;;;;;;;;;;;;;;;8.97;88.53;99783.66;110904;1272;22471;-86
2023/11/07 01:51:57;;;;;;;4.40;0.60;;;;;;;8.95;88.76;99786.00;110731;1270;22186;-84
2023/11/07 01:54:27;;;;;;;4.20;1.00;;;;;;;8.94;89.01;99789.33;110719;1272;23116;-83
2023/11/07 01:56:56;;;;;;;7.00;0.70;;;;;;;8.93;89.24;99793.50;110835;1272;22682;-83
2023/11/07 01:59:26;;;;;;;8.50;0.90;;;;;;;8.92;89.34;99796.98;110567;1273;22964;-80
2023/11/07 02:01:58;;;;;;;4.70;0.90;;;;;;;8.92;89.32;99795.86;110707;1272;22219;-81
2023/11/07 02:04:26;;;;;;;4.40;0.70;;;;;;;8.92;89.43;99797.19;110733;1272;22426;-80
2023/11/07 02:06:55;;;;;;;7.70;0.80;;;;;;;8.92;89.68;99799.11;110703;1263;22145;-82
2023/11/07 02:09:23;;;;;;;3.80;0.60;;;;;;;8.93;89.63;99804.73;110651;1272;22198;-80
2023/11/07 02:11:53;;;;;;;4.50;0.70;;;;;;;8.93;89.79;99805.41;110680;1269;22225;-81
2023/11/07 02:14:28;;;;;;;4.40;0.90;;;;;;;8.94;89.79;99808.13;110459;1272;22320;-80
2023/11/07 02:16:56;;;;;;;5.60;0.70;;;;;;;8.95;89.92;99809.49;110693;1272;22368;-81
2023/11/07 02:19:24;;;;;;;3.70;0.60;;;;;;;8.96;90.11;99808.91;110731;1272;22191;-81
2023/11/07 02:21:54;;;;;;;5.00;0.70;;;;;;;8.98;89.98;99807.26;110767;1272;22542;-80
2023/11/07 02:24:24;;;;;;;5.80;0.70;;;;;;;8.98;90.12;99807.12;110720;1272;22223;-80
2023/11/07 02:26:56;;;;;;;5.20;0.80;;;;;;;8.99;90.29;99810.52;110737;1260;22237;-81
2023/11/07 02:29:24;;;;;;;4.80;0.70;;;;;;;8.99;90.20;99814.17;110683;1272;22285;-80
2023/11/07 02:31:53;;;;;;;5.20;0.80;;;;;;;9.00;90.33;99814.13;110714;1266;22574;-82
2023/11/07 02:34:21;;;;;;;9.50;1.20;;;;;;;9.02;90.36;99817.05;110669;1265;22181;-82
2023/11/07 02:36:50;;;;;;;5.60;1.00;;;;;;;9.03;90.34;99814.39;110600;1273;22228;-81
2023/11/07 02:39:18;;;;;;;5.40;0.80;;;;;;;9.04;90.44;99812.68;110630;1272;22186;-82
2023/11/07 02:41:47;;;;;;;2.90;0.70;;;;;;;9.04;90.34;99811.63;110672;1272;22827;-82
2023/11/07 02:44:18;;;;;;;5.00;0.80;;;;;;;9.05;90.37;99815.94;110729;1272;22694;-81
2023/11/07 02:46:51;;;;;;;4.60;0.60;;;;;;;9.05;90.32;99811.64;110757;1267;22187;-82
2023/11/07 02:49:20;;;;;;;4.50;0.70;;;;;;;9.06;90.57;99819.45;110725;1272;23076;-82
2023/11/07 02:51:49;;;;;;;4.80;0.80;;;;;;;9.07;90.49;99820.52;110721;1272;23261;-82
2023/11/07 02:54:17;;;;;;;4.40;0.80;;;;;;;9.07;90.37;99821.96;110757;1272;22411;-82
2023/11/07 02:56:45;;;;;;;3.40;0.70;;;;;;;9.08;90.51;99819.54;110725;1272;22301;-84
2023/11/07 02:59:16;;;;;;;5.50;0.80;;;;;;;9.08;90.41;99815.15;110728;1272;22949;-82
2023/11/07 03:01:44;;;;;;;5.80;0.60;;;;;;;9.09;90.40;99810.09;110723;1272;22207;-82
2023/11/07 03:04:13;;;;;;;7.60;0.80;;;;;;;9.10;90.35;99812.84;110699;1266;23257;-82
2023/11/07 03:06:41;;;;;;;6.00;0.90;;;;;;;9.10;90.36;99819.08;110698;1272;23415;-82
2023/11/07 03:09:09;;;;;;;3.90;0.70;;;;;;;9.12;90.43;99819.41;110623;1272;22361;-82
2023/11/07 03:11:39;;;;;;;4.30;0.50;;;;;;;9.12;90.26;99821.60;110779;1272;22385;-82
2023/11/07 03:14:07;;;;;;;3.40;0.60;;;;;;;9.13;90.18;99818.46;110718;1261;22281;-82
2023/11/07 03:16:37;;;;;;;4.30;0.50;;;;;;;9.14;90.32;99825.02;110694;1272;22199;-82
2023/11/07 03:19:08;;;;;;;2.70;0.60;;;;;;;9.14;90.33;99826.19;110696;1257;22174;-82
2023/11/07 03:21:37;;;;;;;5.20;0.80;;;;;;;9.15;90.26;99832.42;110792;1269;22288;-82
2023/11/07 03:24:08;;;;;;;3.30;0.50;;;;;;;9.16;90.25;99832.23;110796;1272;22412;-82
2023/11/07 03:26:36;;;;;;;2.80;0.70;;;;;;;9.16;90.24;99833.66;110821;1266;22166;-81
2023/11/07 03:29:04;;;;;;;3.40;0.50;;;;;;;9.17;90.25;99835.40;110725;1267;22313;-81
2023/11/07 03:31:33;;;;;;;5.00;0.50;;;;;;;9.18;90.25;99836.42;110699;1272;22175;-82
2023/11/07 03:34:01;;;;;;;2.80;0.50;;;;;;;9.18;90.30;99836.95;110793;1272;22352;-81
2023/11/07 03:36:29;;;;;;;3.10;0.60;;;;;;;9.19;90.22;99834.77;110764;1272;22453;-82
2023/11/07 03:39:04;;;;;;;4.10;0.50;;;;;;;9.19;90.22;99840.00;110774;1272;22147;-81
2023/11/07 03:41:41;;;;;;;5.50;0.60;;;;;;;9.19;90.06;99841.52;110355;1251;22642;-83
2023/11/07 03:44:10;;;;;;;2.10;0.50;;;;;;;9.19;90.12;99846.86;108845;1269;23722;-81
2023/11/07 03:46:38;;;;;;;2.00;0.40;;;;;;;9.17;89.96;99847.75;108753;1272;22540;-81
2023/11/07 03:49:07;;;;;;;3.00;0.30;;;;;;;9.16;89.81;99847.99;108628;1272;22809;-80
2023/11/07 03:51:35;;;;;;;1.40;0.30;;;;;;;9.14;89.78;99842.65;108720;1266;23136;-81
2023/11/07 03:54:04;;;;;;;1.20;0.30;;;;;;;9.13;89.63;99846.12;108692;1258;25320;-81
2023/11/07 03:56:35;;;;;;;1.50;0.30;;;;;;;9.12;89.66;99850.59;108575;1269;22530;-81
2023/11/07 03:59:03;;;;;;;2.80;0.40;;;;;;;9.09;89.42;99851.30;107944;1272;24204;-81
2023/11/07 04:01:38;;;;;;;2.50;0.30;;;;;;;9.06;89.49;99846.05;108888;1272;25592;-83
2023/11/07 04:04:07;;;;;;;2.60;0.40;;;;;;;9.03;89.43;99847.77;110759;1272;22216;-81
2023/11/07 04:06:35;;;;;;;1.60;0.30;;;;;;;9.01;89.26;99849.33;110633;1266;23047;-81
2023/11/07 04:09:04;;;;;;;1.80;0.30;;;;;;;8.98;89.34;99852.23;110618;1272;22170;-81
2023/11/07 04:11:32;;;;;;;2.70;0.30;;;;;;;8.96;89.33;99852.38;110633;1272;23063;-81
2023/11/07 04:14:00;;;;;;;2.40;0.30;;;;;;;8.93;89.30;99855.61;110741;1257;22246;-80
2023/11/07 04:16:30;;;;;;;1.40;0.30;;;;;;;8.91;89.28;99854.86;110737;1272;22164;-81
2023/11/07 04:18:59;;;;;;;2.10;0.40;;;;;;;8.87;89.14;99856.01;110692;1266;22296;-81
2023/11/07 04:21:27;;;;;;;6.90;0.50;;;;;;;8.85;89.22;99855.47;110674;1272;22373;-81
2023/11/07 04:23:55;;;;;;;4.00;0.40;;;;;;;8.83;89.15;99860.70;110721;1272;22139;-81
2023/11/07 04:26:27;;;;;;;2.70;0.50;;;;;;;8.80;89.09;99867.76;110761;1272;22589;-81
2023/11/07 04:28:55;;;;;;;3.20;0.40;;;;;;;8.78;89.15;99870.48;110674;1272;22164;-81
2023/11/07 04:31:23;;;;;;;1.70;0.40;;;;;;;8.76;89.17;99874.40;110681;1272;22377;-82
2023/11/07 04:33:51;;;;;;;3.10;0.50;;;;;;;8.73;89.13;99873.02;110738;1272;22257;-82
2023/11/07 04:36:19;;;;;;;3.50;0.50;;;;;;;8.70;89.19;99880.98;110670;1272;22213;-82
2023/11/07 04:38:50;;;;;;;3.10;0.40;;;;;;;8.68;89.09;99879.56;110725;1272;22211;-81
2023/11/07 04:41:20;;;;;;;3.40;0.50;;;;;;;8.67;89.12;99876.55;110746;1272;22397;-80
2023/11/07 04:43:52;;;;;;;3.00;0.50;;;;;;;8.65;89.18;99877.33;110713;1272;22195;-80
2023/11/07 04:46:20;;;;;;;3.00;0.40;;;;;;;8.64;89.02;99881.51;110752;1272;22247;-81
2023/11/07 04:48:52;;;;;;;4.40;0.70;;;;;;;8.61;88.99;99885.84;110735;1272;22188;-81
2023/11/07 04:51:20;;;;;;;2.80;0.50;;;;;;;8.57;89.01;99888.39;110641;1266;22404;-81
2023/11/07 04:53:49;;;;;;;2.50;0.40;;;;;;;8.54;89.07;99888.54;110742;1272;22357;-81
2023/11/07 04:56:17;;;;;;;1.60;0.40;;;;;;;8.53;89.09;99893.80;110631;1272;22792;-82
2023/11/07 04:58:46;;;;;;;2.10;0.40;;;;;;;8.50;89.04;99893.30;110641;1269;22202;-82
2023/11/07 05:01:15;;;;;;;3.80;0.70;;;;;;;8.48;89.11;99897.05;110749;1266;23243;-81
2023/11/07 05:03:43;;;;;;;1.80;0.30;;;;;;;8.47;88.90;99900.14;109597;1267;22556;-81
2023/11/07 05:06:11;;;;;;;2.50;0.50;;;;;;;8.44;88.82;99901.95;108090;1272;22583;-79
2023/11/07 05:08:39;;;;;;;3.60;0.70;;;;;;;8.41;88.68;99901.23;108172;1266;23197;-80
2023/11/07 05:11:07;;;;;;;3.20;0.70;;;;;;;8.36;88.64;99902.73;107849;1272;22653;-79
2023/11/07 05:13:35;;;;;;;3.70;0.70;;;;;;;8.32;88.77;99907.80;107743;1266;23350;-79
2023/11/07 05:16:05;;;;;;;2.70;0.40;;;;;;;8.26;88.84;99906.39;107847;1267;22546;-78
2023/11/07 05:18:33;;;;;;;3.40;0.40;;;;;;;8.21;88.85;99907.89;107897;1267;23061;-79
2023/11/07 05:21:01;;;;;;;1.90;0.40;;;;;;;8.16;89.06;99908.04;107934;1269;24278;-80
2023/11/07 05:23:29;;;;;;;2.80;0.50;;;;;;;8.13;89.17;99912.55;107994;1265;22932;-80
2023/11/07 05:25:57;;;;;;;3.50;0.70;;;;;;;8.11;89.21;99909.73;108853;1260;22540;-79
2023/11/07 05:28:25;;;;;;;2.90;0.50;;;;;;;8.09;89.28;99911.55;108473;1269;24022;-80
2023/11/07 05:30:57;;;;;;;2.80;0.80;;;;;;;8.09;89.41;99910.63;108067;1272;22543;-80
2023/11/07 05:33:25;;;;;;;2.50;0.50;;;;;;;8.08;89.52;99919.02;107841;1266;22579;-78
2023/11/07 05:35:53;;;;;;;5.00;0.60;;;;;;;8.07;89.55;99918.81;107879;1272;23401;-78
2023/11/07 05:38:22;;;;;;;3.40;0.60;;;;;;;8.06;89.72;99916.38;107807;1272;22808;-77
2023/11/07 05:40:50;;;;;;;2.30;0.60;;;;;;;8.06;89.83;99922.44;107869;1272;22595;-78
2023/11/07 05:43:19;;;;;;;2.30;0.40;;;;;;;8.04;89.70;99924.98;110591;1272;22209;-79
2023/11/07 05:45:47;;;;;;;2.30;0.50;;;;;;;8.03;89.81;99926.62;110671;1272;22536;-79
2023/11/07 05:48:15;;;;;;;3.40;0.50;;;;;;;8.02;89.85;99931.91;110670;1272;22177;-78
2023/11/07 05:50:43;;;;;;;1.40;0.40;;;;;;;8.03;89.82;99934.17;110691;1272;22321;-78
2023/11/07 05:53:11;;;;;;;3.40;0.50;;;;;;;8.04;89.96;99936.91;110651;1272;22187;-78
2023/11/07 05:55:39;;;;;;;2.30;0.50;;;;;;;8.05;89.78;99945.52;110689;1272;22442;-78
2023/11/07 05:58:07;;;;;;;2.50;0.60;;;;;;;8.05;89.72;99947.43;110660;1272;22401;-80
2023/11/07 06:00:36;;;;;;;3.40;0.60;;;;;;;8.05;89.55;99945.20;110699;1272;22869;-78
2023/11/07 06:03:04;;;;;;;4.30;0.70;;;;;;;8.04;89.56;99951.52;110677;1272;22186;-77
2023/11/07 06:05:34;;;;;;;4.70;0.60;;;;;;;8.04;89.58;99954.64;110642;1262;23004;-78
2023/11/07 06:08:02;;;;;;;2.50;0.40;;;;;;;8.03;89.60;99949.58;110668;1272;22271;-78
2023/11/07 06:10:30;;;;;;;2.00;0.30;;;;;;;8.02;89.65;99956.39;110694;1269;22571;-77
2023/11/07 06:13:03;;;;;;;3.50;0.40;;;;;;;8.02;89.64;99959.48;110676;1272;22891;-78
2023/11/07 06:15:31;;;;;;;;;;;;;;;8.01;89.64;99956.02;110744;1272;22505;-77
2023/11/07 06:18:01;;;;;;;2.70;0.40;;;;;;;7.98;89.61;99961.64;110686;1272;22902;-79
2023/11/07 06:20:29;;;;;;;2.20;0.40;;;;;;;7.98;89.70;99962.04;110714;1272;22781;-78
2023/11/07 06:22:57;;;;;;;1.90;0.50;;;;;;;7.98;89.72;99963.09;110663;1266;22996;-78
2023/11/07 06:25:25;;;;;;;2.20;0.50;;;;;;;7.98;89.63;99957.77;110655;1256;23118;-78
2023/11/07 06:27:54;;;;;;;2.20;0.40;;;;;;;7.97;89.74;99959.79;110724;1272;22899;-77
2023/11/07 06:30:23;;;;;;;1.80;0.40;;;;;;;7.98;89.77;99961.11;110699;1272;22178;-78
2023/11/07 06:32:52;;;;;;;3.30;0.60;;;;;;;7.98;89.78;99965.23;110687;1272;22347;-78
2023/11/07 06:35:21;;;;;;;2.00;0.50;;;;;;;7.99;89.74;99965.80;110721;1272;22407;-77
2023/11/07 06:37:50;;;;;;;3.30;0.40;;;;;;;8.00;89.73;99970.86;110695;1272;22208;-78
2023/11/07 06:40:20;;;;;;;3.70;0.70;;;;;;;8.00;89.82;99975.52;110704;1272;22516;-77
2023/11/07 06:42:48;;;;;;;7.00;0.60;;;;;;;8.01;89.78;99980.86;110746;1272;22160;-77
2023/11/07 06:45:19;;;;;;;1.80;0.40;;;;;;;8.01;89.81;99978.83;110697;1270;22173;-77
2023/11/07 06:47:48;;;;;;;1.10;0.40;;;;;;;8.01;89.87;99979.94;110799;1268;22236;-78
2023/11/07 06:50:16;;;;;;;2.10;0.40;;;;;;;8.01;89.84;99985.89;110761;1269;22961;-78
2023/11/07 06:52:50;;;;;;;5.70;0.40;;;;;;;7.99;89.81;99987.09;110679;1266;22426;-77
2023/11/07 06:55:24;;;;;;;2.20;0.40;;;;;;;7.99;89.88;99986.85;110746;1272;22163;-78
2023/11/07 06:57:53;;;;;;;1.50;0.40;;;;;;;8.00;89.89;99989.05;110748;1272;22736;-77
2023/11/07 07:00:24;;;;;;;2.50;0.60;;;;;;;8.00;89.93;99992.52;110758;1272;22262;-79
2023/11/07 07:02:55;;;;;;;2.40;0.40;;;;;;;8.01;90.01;99995.58;110703;1259;22162;-78
2023/11/07 07:05:23;;;;;;;1.50;0.40;;;;;;;8.02;89.83;99996.66;110702;1272;22383;-77
2023/11/07 07:07:51;;;;;;;2.60;0.50;;;;;;;8.03;90.00;99999.86;110769;1272;22395;-77
2023/11/07 07:10:19;;;;;;;2.20;0.40;;;;;;;8.05;90.02;100001.77;110763;1263;22187;-78
2023/11/07 07:12:47;;;;;;;2.00;0.30;;;;;;;8.06;89.98;100002.63;110766;1272;22232;-78
2023/11/07 07:15:17;;;;;;;2.80;0.40;;;;;;;8.09;90.01;100008.41;110789;1261;22242;-78
2023/11/07 07:17:45;;;;;;;3.40;0.50;;;;;;;8.12;90.04;100010.00;110784;1272;22166;-77
2023/11/07 07:20:13;;;;;;;2.80;0.50;;;;;;;8.15;90.24;100012.75;110739;1272;22361;-77
2023/11/07 07:22:42;;;;;;;3.40;0.50;;;;;;;8.18;90.06;100013.94;110714;1272;22968;-77
2023/11/07 07:25:15;;;;;;;1.10;0.20;;;;;;;8.23;90.14;100021.59;110764;1272;23062;-78
2023/11/07 07:27:45;;;;;;;3.70;0.50;;;;;;;8.28;90.05;100020.08;110771;1272;22663;-77
2023/11/07 07:30:20;;;;;;;2.60;0.50;;;;;;;8.34;90.06;100017.03;110694;1272;22887;-77
2023/11/07 07:32:49;;;;;;;4.10;0.40;;;;;;;8.40;90.05;100019.30;110772;1272;22167;-77
2023/11/07 07:35:20;;;;;;;5.60;0.60;;;;;;;8.46;89.95;100022.48;110743;1263;22188;-77
2023/11/07 07:37:51;;;;;;;4.80;0.50;;;;;;;8.52;89.82;100022.19;110686;1272;22205;-77
2023/11/07 07:40:24;;;;;;;2.50;0.40;;;;;;;8.58;89.74;100024.95;110734;1272;22184;-77
2023/11/07 07:42:53;;;;;;;3.90;0.60;;;;;;;8.63;89.78;100030.33;110742;1272;22298;-78
2023/11/07 07:45:21;;;;;;;3.60;0.50;;;;;;;8.69;89.74;100025.85;110760;1272;22311;-77
2023/11/07 07:47:50;;;;;;;3.80;0.70;;;;;;;8.74;89.67;100028.60;110720;1262;22173;-77
2023/11/07 07:50:20;;;;;;;3.40;0.50;;;;;;;8.78;89.63;100028.55;110747;1272;22236;-78
2023/11/07 07:52:54;;;;;;;2.80;0.50;;;;;;;8.83;89.38;100033.17;110693;1272;22221;-78
2023/11/07 07:55:22;;;;;;;4.10;0.80;;;;;;;8.89;89.43;100033.77;110759;1272;22795;-77
2023/11/07 07:57:50;;;;;;;2.50;0.50;;;;;;;8.93;89.43;100029.96;110562;1272;22610;-77
2023/11/07 08:00:24;;;;;;;3.50;0.40;;;;;;;8.99;89.25;100034.38;110748;1272;22872;-78
2023/11/07 08:02:54;;;;;;;3.80;0.30;;;;;;;9.04;89.17;100032.46;110727;1268;22269;-78
2023/11/07 08:05:23;;;;;;;2.50;0.50;;;;;;;9.09;89.16;100029.36;110735;1272;22941;-79
2023/11/07 08:07:51;;;;;;;4.90;0.30;;;;;;;9.14;89.15;100027.97;110770;1270;22364;-79
2023/11/07 08:10:22;;;;;;;3.10;0.40;;;;;;;9.20;88.75;100033.16;110720;1272;22677;-78
2023/11/07 08:12:51;;;;;;;2.10;0.30;;;;;;;9.26;88.80;100038.04;110739;1272;22911;-77
2023/11/07 08:15:19;;;;;;;2.90;0.40;;;;;;;9.32;88.94;100038.16;110745;1272;22973;-78
2023/11/07 08:17:50;;;;;;;4.30;0.50;;;;;;;9.37;88.89;100038.08;110743;1272;22338;-78
2023/11/07 08:20:19;;;;;;;3.10;0.40;;;;;;;9.44;88.64;100038.63;110715;1272;23226;-77
2023/11/07 08:22:51;;;;;;;4.30;0.30;;;;;;;9.50;88.63;100040.83;110694;1269;22322;-78
2023/11/07 08:25:22;;;;;;;1.80;0.20;;;;;;;9.55;88.44;100041.46;110680;1272;22204;-77
2023/11/07 08:27:50;;;;;;;4.10;0.30;;;;;;;9.61;88.54;100043.67;110706;1272;22802;-78
2023/11/07 08:30:22;;;;;;;3.50;0.40;;;;;;;9.68;88.25;100045.33;110692;1272;22226;-77
2023/11/07 08:32:51;;;;;;;6.70;0.50;;;;;;;9.73;88.15;100048.66;110690;1272;22170;-78
2023/11/07 08:35:20;;;;;;;2.50;0.30;;;;;;;9.79;88.07;100052.88;110737;1272;22219;-77
2023/11/07 08:37:51;;;;;;;2.70;0.50;;;;;;;9.90;88.00;100055.38;110740;1262;22176;-77
2023/11/07 08:40:21;;;;;;;7.90;0.90;;;;;;;10.03;87.90;100057.99;110644;1272;22187;-77
2023/11/07 08:42:50;;;;;;;2.50;0.50;;;;;;;10.15;88.11;100056.40;110714;1272;22994;-77
2023/11/07 08:45:24;;;;;;;7.50;0.50;;;;;;;10.26;87.82;100053.92;110716;1272;23082;-78
2023/11/07 08:47:54;;;;;;;6.90;0.40;;;;;;;10.35;87.35;100059.40;110725;1272;22167;-78
2023/11/07 08:50:22;;;;;;;4.30;0.40;;;;;;;10.43;87.23;100057.90;110667;1265;22215;-78
2023/11/07 08:52:50;;;;;;;2.90;0.30;;;;;;;10.49;87.09;100058.98;110759;1272;22935;-78
2023/11/07 08:55:19;;;;;;;3.40;0.40;;;;;;;10.53;86.44;100057.77;110719;1272;22983;-77
2023/11/07 08:57:49;;;;;;;4.10;0.40;;;;;;;10.58;86.21;100057.10;110727;1272;22498;-77
2023/11/07 09:00:21;;;;;;;3.10;0.30;;;;;;;10.64;86.36;100057.28;110710;1272;23208;-77
2023/11/07 09:02:50;;;;;;;2.30;0.40;;;;;;;10.69;86.03;100056.45;110728;1272;22194;-77
2023/11/07 09:05:24;;;;;;;2.70;0.40;;;;;;;10.72;85.78;100057.91;110736;1272;22338;-78
2023/11/07 09:07:52;;;;;;;5.10;0.40;;;;;;;10.76;85.53;100061.33;110693;1272;22118;-77
2023/11/07 09:10:22;;;;;;;3.40;0.40;;;;;;;10.79;85.57;100055.13;110709;1272;22395;-78
2023/11/07 09:12:50;;;;;;;3.40;0.30;;;;;;;10.84;85.41;100056.38;110735;1272;22229;-78
2023/11/07 09:15:19;;;;;;;1.90;0.40;;;;;;;10.90;84.75;100060.41;110701;1272;23074;-77
2023/11/07 09:17:47;;;;;;;2.60;0.30;;;;;;;10.95;84.44;100059.95;110754;1269;22447;-77
2023/11/07 09:20:15;;;;;;;2.10;0.50;;;;;;;10.99;84.17;100063.40;110718;1272;23133;-77
2023/11/07 09:22:47;;;;;;;2.30;0.40;;;;;;;11.01;84.05;100059.36;110691;1269;22172;-77
2023/11/07 09:25:15;;;;;;;3.50;0.40;;;;;;;11.04;83.78;100060.94;110653;1272;22910;-82
2023/11/07 09:27:44;;;;;;;2.20;0.30;;;;;;;11.10;83.97;100068.92;110720;1272;22240;-77
2023/11/07 09:30:13;;;;;;;3.60;0.30;;;;;;;11.15;84.14;100065.81;110672;1272;23112;-79
2023/11/07 09:32:43;;;;;;;2.00;0.50;;;;;;;11.21;83.79;100069.14;110643;1272;22422;-77
2023/11/07 09:35:11;;;;;;;2.00;0.40;;;;;;;11.27;83.51;100066.77;110703;1272;22364;-77
2023/11/07 09:37:42;;;;;;;2.00;0.40;;;;;;;11.30;83.03;100065.16;110743;1272;22329;-78
2023/11/07 09:40:17;;;;;;;4.20;0.50;;;;;;;11.35;82.72;100064.45;110735;1272;22395;-77
2023/11/07 09:42:48;;;;;;;3.00;0.80;;;;;;;11.40;82.99;100070.20;110741;1272;22863;-78
2023/11/07 09:45:21;;;;;;;3.50;0.50;;;;;;;11.45;82.64;100066.56;110727;1272;23118;-78
2023/11/07 09:47:50;;;;;;;2.30;0.50;;;;;;;11.50;82.66;100070.79;110771;1272;22288;-77
2023/11/07 09:50:21;;;;;;;3.00;0.30;;;;;;;11.54;81.92;100070.69;110738;1272;22965;-78
2023/11/07 09:52:54;;;;;;;2.10;0.40;;;;;;;11.60;81.80;100069.98;110754;1272;23061;-78
2023/11/07 09:55:29;;;;;;;2.90;0.40;;;;;;;11.64;81.14;100065.67;110726;1264;22772;-78
2023/11/07 09:58:04;;;;;;;5.30;0.50;;;;;;;11.68;80.76;100061.73;110753;1272;22916;-78
2023/11/07 10:00:33;;;;;;;2.30;0.30;;;;;;;11.75;81.46;100065.02;110720;1272;22158;-78
2023/11/07 10:03:03;;;;;;;1.50;0.30;;;;;;;11.78;80.43;100063.84;110713;1272;22264;-79
2023/11/07 10:05:36;;;;;;;3.10;0.30;;;;;;;11.80;80.04;100061.20;110735;1269;22519;-78
2023/11/07 10:08:06;;;;;;;3.90;1.00;;;;;;;11.82;80.18;100062.04;110699;1272;22276;-78
2023/11/07 10:10:34;;;;;;;1.30;0.30;;;;;;;11.84;80.24;100060.45;110708;1263;22196;-78
2023/11/07 10:13:10;;;;;;;3.40;0.30;;;;;;;11.88;80.19;100062.63;110734;1272;22149;-80
2023/11/07 10:15:38;;;;;;;1.60;0.40;;;;;;;11.90;79.63;100055.72;110596;1272;22387;-78
2023/11/07 10:18:08;;;;;;;4.40;0.40;;;;;;;11.92;79.63;100049.83;110723;1272;22383;-79
2023/11/07 10:20:54;;;;;;;2.40;0.30;;;;;;;11.97;79.86;100052.19;110764;1272;22976;-78
2023/11/07 10:23:22;;;;;;;3.80;0.50;;;;;;;12.02;79.58;100045.21;110695;1270;22359;-78
2023/11/07 10:25:51;;;;;;;1.50;0.20;;;;;;;12.03;78.93;100042.73;110741;1272;22173;-78
2023/11/07 10:28:22;;;;;;;1.10;0.30;;;;;;;12.05;79.16;100047.80;110746;1266;23016;-78
2023/11/07 10:30:50;;;;;;;1.90;0.40;;;;;;;12.09;78.42;100049.21;110680;1272;22235;-78
2023/11/07 10:33:27;;;;;;;1.50;0.30;;;;;;;12.13;77.85;100049.30;110685;1269;23271;-78
2023/11/07 10:35:56;;;;;;;3.30;0.20;;;;;;;12.14;76.30;100045.03;110689;1272;22249;-79
2023/11/07 10:38:25;;;;;;;2.20;0.40;;;;;;;12.15;76.71;100043.47;110764;1272;22170;-78
2023/11/07 10:40:56;;;;;;;2.20;0.40;;;;;;;12.18;76.44;100042.98;110660;1272;22413;-78
2023/11/07 10:43:33;;;;;;;1.50;0.30;;;;;;;12.20;75.90;100040.66;110744;1272;22219;-78
2023/11/07 10:46:05;;;;;;;2.00;0.40;;;;;;;12.21;75.11;100041.39;110689;1273;22719;-78
2023/11/07 10:48:38;;;;;;;4.70;0.30;;;;;;;12.19;75.28;100034.59;110623;1272;22222;-77
2023/11/07 10:51:08;;;;;;;0.60;0.20;;;;;;;12.19;75.05;100033.83;110733;1272;22157;-77
2023/11/07 10:53:37;;;;;;;2.20;0.30;;;;;;;12.19;74.79;100029.76;110687;1272;22340;-78
2023/11/07 10:56:12;;;;;;;2.10;0.30;;;;;;;12.20;75.22;100026.98;110759;1272;22400;-77
2023/11/07 10:58:44;;;;;;;2.10;0.40;;;;;;;12.21;74.86;100029.77;110743;1272;22934;-78
2023/11/07 11:01:16;;;;;;;7.40;0.50;;;;;;;12.22;74.28;100027.25;110754;1268;22337;-78
2023/11/07 11:03:49;;;;;;;2.80;0.30;;;;;;;12.22;73.76;100033.60;110717;1272;22255;-77
2023/11/07 11:06:23;;;;;;;6.20;0.40;;;;;;;12.22;73.26;100032.69;110725;1272;22133;-77
2023/11/07 11:08:56;;;;;;;2.40;0.40;;;;;;;12.22;73.16;100025.35;110772;1269;22202;-78
2023/11/07 11:11:25;;;;;;;1.70;0.20;;;;;;;12.22;73.54;100021.59;110780;1272;22293;-78
2023/11/07 11:13:53;;;;;;;3.90;0.30;;;;;;;12.22;73.02;100017.89;110735;1272;22447;-77
2023/11/07 11:16:23;;;;;;;2.30;0.30;;;;;;;12.25;73.31;100016.42;110768;1272;23324;-77
2023/11/07 11:18:59;;;;;;;1.60;0.20;;;;;;;12.27;72.65;100016.35;110720;1272;22461;-78
2023/11/07 11:21:38;;;;;;;2.20;0.30;;;;;;;12.29;72.40;100013.20;110734;1272;22211;-77
2023/11/07 11:24:13;;;;;;;2.00;0.20;;;;;;;12.30;72.01;100012.19;110762;1272;22207;-78
2023/11/07 11:26:47;;;;;;;2.50;0.30;;;;;;;12.30;72.27;100011.48;110794;1272;22418;-77
2023/11/07 11:29:28;;;;;;;2.80;0.30;;;;;;;12.30;71.81;100008.08;110743;1268;22727;-77
2023/11/07 11:31:56;;;;;;;1.10;0.20;;;;;;;12.32;71.90;100006.40;110741;1272;22231;-78
2023/11/07 11:34:28;;;;;;;5.70;0.40;;;;;;;12.34;71.63;100007.96;110774;1272;22433;-78
2023/11/07 11:36:57;;;;;;;3.10;0.30;;;;;;;12.35;71.50;100005.27;110759;1272;22555;-77
2023/11/07 11:39:45;;;;;;;3.30;0.30;;;;;;;12.35;71.44;100001.81;110751;1272;22185;-77